sensor_id;sensor_type;location;lat;lon;timestamp;P1;durP1;ratioP1;P2;durP2;ratioP2
7150;SDS011;3617;48.836;9.172;2023-12-29T00:00:29;3.63;;;1.70;;
7150;SDS011;3617;48.836;9.172;2023-12-29T00:02:55;1.73;;;1.20;;
7150;SDS011;3617;48.836;9.172;2023-12-29T00:05:21;2.03;;;1.70;;
7150;SDS011;3617;48.836;9.172;2023-12-29T00:07:47;1.33;;;1.23;;
7150;SDS011;3617;48.836;9.172;2023-12-29T00:10:13;1.80;;;1.27;;
7150;SDS011;3617;48.836;9.172;2023-12-29T00:12:38;1.30;;;1.20;;
7150;SDS011;3617;48.836;9.172;2023-12-29T00:15:05;1.87;;;1.57;;
7150;SDS011;3617;48.836;9.172;2023-12-29T00:17:31;2.80;;;1.50;;
7150;SDS011;3617;48.836;9.172;2023-12-29T00:19:57;2.80;;;1.70;;
7150;SDS011;3617;48.836;9.172;2023-12-29T00:22:23;2.27;;;1.40;;
7150;SDS011;3617;48.836;9.172;2023-12-29T00:24:50;3.80;;;1.80;;
7150;SDS011;3617;48.836;9.172;2023-12-29T00:27:16;1.93;;;1.50;;
7150;SDS011;3617;48.836;9.172;2023-12-29T00:29:42;1.50;;;1.40;;
7150;SDS011;3617;48.836;9.172;2023-12-29T00:32:08;2.07;;;1.50;;
7150;SDS011;3617;48.836;9.172;2023-12-29T00:34:34;2.23;;;1.60;;
7150;SDS011;3617;48.836;9.172;2023-12-29T00:37:02;1.83;;;1.57;;
7150;SDS011;3617;48.836;9.172;2023-12-29T00:39:28;2.67;;;1.80;;
7150;SDS011;3617;48.836;9.172;2023-12-29T00:41:55;1.63;;;1.20;;
7150;SDS011;3617;48.836;9.172;2023-12-29T00:44:22;3.90;;;1.60;;
7150;SDS011;3617;48.836;9.172;2023-12-29T00:46:49;2.40;;;1.43;;
7150;SDS011;3617;48.836;9.172;2023-12-29T00:49:15;2.03;;;1.40;;
7150;SDS011;3617;48.836;9.172;2023-12-29T00:51:41;4.40;;;1.83;;
7150;SDS011;3617;48.836;9.172;2023-12-29T00:54:07;1.53;;;1.43;;
7150;SDS011;3617;48.836;9.172;2023-12-29T00:56:33;1.40;;;1.20;;
7150;SDS011;3617;48.836;9.172;2023-12-29T00:58:59;3.87;;;1.40;;
7150;SDS011;3617;48.836;9.172;2023-12-29T01:01:25;1.83;;;1.50;;
7150;SDS011;3617;48.836;9.172;2023-12-29T01:03:51;2.23;;;1.70;;
7150;SDS011;3617;48.836;9.172;2023-12-29T01:06:19;1.43;;;1.20;;
7150;SDS011;3617;48.836;9.172;2023-12-29T01:08:45;1.80;;;1.40;;
7150;SDS011;3617;48.836;9.172;2023-12-29T01:11:11;1.53;;;1.43;;
7150;SDS011;3617;48.836;9.172;2023-12-29T01:13:37;1.70;;;1.60;;
7150;SDS011;3617;48.836;9.172;2023-12-29T01:16:03;1.77;;;1.50;;
7150;SDS011;3617;48.836;9.172;2023-12-29T01:18:29;2.43;;;1.50;;
7150;SDS011;3617;48.836;9.172;2023-12-29T01:20:55;1.87;;;1.57;;
7150;SDS011;3617;48.836;9.172;2023-12-29T01:23:21;2.23;;;1.63;;
7150;SDS011;3617;48.836;9.172;2023-12-29T01:25:47;2.70;;;1.47;;
7150;SDS011;3617;48.836;9.172;2023-12-29T01:28:13;2.03;;;1.50;;
7150;SDS011;3617;48.836;9.172;2023-12-29T01:30:39;2.13;;;1.40;;
7150;SDS011;3617;48.836;9.172;2023-12-29T01:33:05;1.40;;;1.30;;
7150;SDS011;3617;48.836;9.172;2023-12-29T01:35:31;1.50;;;1.40;;
7150;SDS011;3617;48.836;9.172;2023-12-29T01:37:57;1.70;;;1.57;;
7150;SDS011;3617;48.836;9.172;2023-12-29T01:40:23;2.17;;;1.40;;
7150;SDS011;3617;48.836;9.172;2023-12-29T01:42:49;1.73;;;1.30;;
7150;SDS011;3617;48.836;9.172;2023-12-29T01:45:22;3.67;;;1.40;;
7150;SDS011;3617;48.836;9.172;2023-12-29T01:47:49;2.50;;;1.70;;
7150;SDS011;3617;48.836;9.172;2023-12-29T01:50:16;1.83;;;1.60;;
7150;SDS011;3617;48.836;9.172;2023-12-29T01:52:43;2.07;;;1.40;;
7150;SDS011;3617;48.836;9.172;2023-12-29T01:55:09;1.67;;;1.50;;
7150;SDS011;3617;48.836;9.172;2023-12-29T01:57:36;1.40;;;1.30;;
7150;SDS011;3617;48.836;9.172;2023-12-29T02:00:03;1.90;;;1.60;;
7150;SDS011;3617;48.836;9.172;2023-12-29T02:02:30;3.23;;;1.67;;
7150;SDS011;3617;48.836;9.172;2023-12-29T02:04:56;2.40;;;1.37;;
7150;SDS011;3617;48.836;9.172;2023-12-29T02:07:23;1.83;;;1.70;;
7150;SDS011;3617;48.836;9.172;2023-12-29T02:09:49;2.53;;;1.50;;
7150;SDS011;3617;48.836;9.172;2023-12-29T02:12:16;1.73;;;1.33;;
7150;SDS011;3617;48.836;9.172;2023-12-29T02:14:44;1.87;;;1.70;;
7150;SDS011;3617;48.836;9.172;2023-12-29T02:19:37;2.33;;;1.80;;
7150;SDS011;3617;48.836;9.172;2023-12-29T02:22:07;1.77;;;1.47;;
7150;SDS011;3617;48.836;9.172;2023-12-29T02:24:33;3.57;;;1.90;;
7150;SDS011;3617;48.836;9.172;2023-12-29T02:27:02;1.67;;;1.57;;
7150;SDS011;3617;48.836;9.172;2023-12-29T02:29:30;1.80;;;1.53;;
7150;SDS011;3617;48.836;9.172;2023-12-29T02:31:57;1.93;;;1.60;;
7150;SDS011;3617;48.836;9.172;2023-12-29T02:34:25;5.10;;;1.50;;
7150;SDS011;3617;48.836;9.172;2023-12-29T02:36:51;2.33;;;1.80;;
7150;SDS011;3617;48.836;9.172;2023-12-29T02:39:18;1.77;;;1.57;;
7150;SDS011;3617;48.836;9.172;2023-12-29T02:41:44;1.60;;;1.43;;
7150;SDS011;3617;48.836;9.172;2023-12-29T02:44:10;2.17;;;1.40;;
7150;SDS011;3617;48.836;9.172;2023-12-29T02:46:36;2.23;;;1.37;;
7150;SDS011;3617;48.836;9.172;2023-12-29T02:49:03;1.77;;;1.50;;
7150;SDS011;3617;48.836;9.172;2023-12-29T02:51:29;2.43;;;1.70;;
7150;SDS011;3617;48.836;9.172;2023-12-29T02:53:55;2.30;;;1.73;;
7150;SDS011;3617;48.836;9.172;2023-12-29T02:56:21;1.87;;;1.50;;
7150;SDS011;3617;48.836;9.172;2023-12-29T02:58:47;1.77;;;1.60;;
7150;SDS011;3617;48.836;9.172;2023-12-29T03:01:13;2.33;;;1.90;;
7150;SDS011;3617;48.836;9.172;2023-12-29T03:03:39;2.50;;;1.63;;
7150;SDS011;3617;48.836;9.172;2023-12-29T03:06:06;1.80;;;1.53;;
7150;SDS011;3617;48.836;9.172;2023-12-29T03:08:32;5.00;;;1.63;;
7150;SDS011;3617;48.836;9.172;2023-12-29T03:10:58;1.70;;;1.60;;
7150;SDS011;3617;48.836;9.172;2023-12-29T03:13:24;2.10;;;1.37;;
7150;SDS011;3617;48.836;9.172;2023-12-29T03:15:50;1.43;;;1.33;;
7150;SDS011;3617;48.836;9.172;2023-12-29T03:18:16;2.40;;;1.73;;
7150;SDS011;3617;48.836;9.172;2023-12-29T03:20:42;2.00;;;1.60;;
7150;SDS011;3617;48.836;9.172;2023-12-29T03:23:08;1.77;;;1.60;;
7150;SDS011;3617;48.836;9.172;2023-12-29T03:25:34;2.13;;;1.40;;
7150;SDS011;3617;48.836;9.172;2023-12-29T03:28:00;3.40;;;1.57;;
7150;SDS011;3617;48.836;9.172;2023-12-29T03:30:26;1.97;;;1.50;;
7150;SDS011;3617;48.836;9.172;2023-12-29T03:32:52;2.00;;;1.60;;
7150;SDS011;3617;48.836;9.172;2023-12-29T03:35:18;1.70;;;1.57;;
7150;SDS011;3617;48.836;9.172;2023-12-29T03:37:44;2.77;;;1.27;;
7150;SDS011;3617;48.836;9.172;2023-12-29T03:40:10;2.03;;;1.33;;
7150;SDS011;3617;48.836;9.172;2023-12-29T03:42:37;1.43;;;1.30;;
7150;SDS011;3617;48.836;9.172;2023-12-29T03:45:03;2.03;;;1.60;;
7150;SDS011;3617;48.836;9.172;2023-12-29T03:47:30;1.60;;;1.50;;
7150;SDS011;3617;48.836;9.172;2023-12-29T03:49:56;2.40;;;1.73;;
7150;SDS011;3617;48.836;9.172;2023-12-29T03:52:23;1.87;;;1.60;;
7150;SDS011;3617;48.836;9.172;2023-12-29T03:54:48;2.00;;;1.70;;
7150;SDS011;3617;48.836;9.172;2023-12-29T03:57:14;2.37;;;1.73;;
7150;SDS011;3617;48.836;9.172;2023-12-29T03:59:40;1.90;;;1.67;;
7150;SDS011;3617;48.836;9.172;2023-12-29T04:02:06;1.70;;;1.53;;
7150;SDS011;3617;48.836;9.172;2023-12-29T04:04:36;2.93;;;1.43;;
7150;SDS011;3617;48.836;9.172;2023-12-29T04:07:02;1.30;;;1.20;;
7150;SDS011;3617;48.836;9.172;2023-12-29T04:09:28;2.53;;;1.63;;
7150;SDS011;3617;48.836;9.172;2023-12-29T04:11:54;2.40;;;1.50;;
7150;SDS011;3617;48.836;9.172;2023-12-29T04:14:20;2.27;;;1.63;;
7150;SDS011;3617;48.836;9.172;2023-12-29T04:16:46;2.30;;;1.50;;
7150;SDS011;3617;48.836;9.172;2023-12-29T04:19:13;1.30;;;1.20;;
7150;SDS011;3617;48.836;9.172;2023-12-29T04:21:39;1.50;;;1.40;;
7150;SDS011;3617;48.836;9.172;2023-12-29T04:24:05;2.10;;;1.50;;
7150;SDS011;3617;48.836;9.172;2023-12-29T04:26:37;1.50;;;1.40;;
7150;SDS011;3617;48.836;9.172;2023-12-29T04:29:03;1.40;;;1.20;;
7150;SDS011;3617;48.836;9.172;2023-12-29T04:31:29;1.77;;;1.43;;
7150;SDS011;3617;48.836;9.172;2023-12-29T04:33:55;1.50;;;1.40;;
7150;SDS011;3617;48.836;9.172;2023-12-29T04:36:21;1.30;;;1.20;;
7150;SDS011;3617;48.836;9.172;2023-12-29T04:38:47;2.33;;;1.53;;
7150;SDS011;3617;48.836;9.172;2023-12-29T04:41:13;3.73;;;1.83;;
7150;SDS011;3617;48.836;9.172;2023-12-29T04:43:39;1.50;;;1.40;;
7150;SDS011;3617;48.836;9.172;2023-12-29T04:46:05;1.30;;;1.17;;
7150;SDS011;3617;48.836;9.172;2023-12-29T04:48:32;2.00;;;1.40;;
7150;SDS011;3617;48.836;9.172;2023-12-29T04:50:59;1.57;;;1.47;;
7150;SDS011;3617;48.836;9.172;2023-12-29T04:53:26;2.43;;;1.40;;
7150;SDS011;3617;48.836;9.172;2023-12-29T04:55:52;1.97;;;1.33;;
7150;SDS011;3617;48.836;9.172;2023-12-29T04:58:18;4.23;;;1.33;;
7150;SDS011;3617;48.836;9.172;2023-12-29T05:00:44;1.40;;;1.20;;
7150;SDS011;3617;48.836;9.172;2023-12-29T05:03:09;3.27;;;1.40;;
7150;SDS011;3617;48.836;9.172;2023-12-29T05:05:36;1.70;;;1.47;;
7150;SDS011;3617;48.836;9.172;2023-12-29T05:08:02;1.63;;;1.30;;
7150;SDS011;3617;48.836;9.172;2023-12-29T05:10:28;2.17;;;1.50;;
7150;SDS011;3617;48.836;9.172;2023-12-29T05:12:54;2.30;;;1.70;;
7150;SDS011;3617;48.836;9.172;2023-12-29T05:15:20;2.30;;;1.40;;
7150;SDS011;3617;48.836;9.172;2023-12-29T05:17:46;1.50;;;1.40;;
7150;SDS011;3617;48.836;9.172;2023-12-29T05:20:12;2.63;;;1.53;;
7150;SDS011;3617;48.836;9.172;2023-12-29T05:22:38;2.47;;;1.40;;
7150;SDS011;3617;48.836;9.172;2023-12-29T05:25:04;1.57;;;1.47;;
7150;SDS011;3617;48.836;9.172;2023-12-29T05:27:30;1.50;;;1.40;;
7150;SDS011;3617;48.836;9.172;2023-12-29T05:29:56;1.83;;;1.73;;
7150;SDS011;3617;48.836;9.172;2023-12-29T05:32:22;2.90;;;1.90;;
7150;SDS011;3617;48.836;9.172;2023-12-29T05:34:48;1.53;;;1.37;;
7150;SDS011;3617;48.836;9.172;2023-12-29T05:37:14;2.20;;;1.27;;
7150;SDS011;3617;48.836;9.172;2023-12-29T05:39:43;1.90;;;1.50;;
7150;SDS011;3617;48.836;9.172;2023-12-29T05:42:09;2.43;;;1.73;;
7150;SDS011;3617;48.836;9.172;2023-12-29T05:44:36;2.20;;;1.30;;
7150;SDS011;3617;48.836;9.172;2023-12-29T05:47:02;1.30;;;1.20;;
7150;SDS011;3617;48.836;9.172;2023-12-29T05:49:28;1.73;;;1.63;;
7150;SDS011;3617;48.836;9.172;2023-12-29T05:51:55;1.67;;;1.57;;
7150;SDS011;3617;48.836;9.172;2023-12-29T05:54:20;2.13;;;1.50;;
7150;SDS011;3617;48.836;9.172;2023-12-29T05:56:46;2.20;;;1.60;;
7150;SDS011;3617;48.836;9.172;2023-12-29T05:59:12;1.73;;;1.57;;
7150;SDS011;3617;48.836;9.172;2023-12-29T06:01:38;3.20;;;1.53;;
7150;SDS011;3617;48.836;9.172;2023-12-29T06:04:04;2.10;;;1.70;;
7150;SDS011;3617;48.836;9.172;2023-12-29T06:06:30;1.83;;;1.33;;
7150;SDS011;3617;48.836;9.172;2023-12-29T06:08:56;3.40;;;1.73;;
7150;SDS011;3617;48.836;9.172;2023-12-29T06:11:22;2.77;;;1.40;;
7150;SDS011;3617;48.836;9.172;2023-12-29T06:13:48;2.70;;;1.90;;
7150;SDS011;3617;48.836;9.172;2023-12-29T06:16:18;1.37;;;1.20;;
7150;SDS011;3617;48.836;9.172;2023-12-29T06:18:44;1.20;;;1.10;;
7150;SDS011;3617;48.836;9.172;2023-12-29T06:21:10;1.57;;;1.30;;
7150;SDS011;3617;48.836;9.172;2023-12-29T06:23:36;1.93;;;1.70;;
7150;SDS011;3617;48.836;9.172;2023-12-29T06:26:02;1.90;;;1.37;;
7150;SDS011;3617;48.836;9.172;2023-12-29T06:28:28;2.80;;;1.63;;
7150;SDS011;3617;48.836;9.172;2023-12-29T06:30:54;1.53;;;1.27;;
7150;SDS011;3617;48.836;9.172;2023-12-29T06:33:20;3.00;;;1.47;;
7150;SDS011;3617;48.836;9.172;2023-12-29T06:35:47;1.57;;;1.47;;
7150;SDS011;3617;48.836;9.172;2023-12-29T06:38:13;2.00;;;1.47;;
7150;SDS011;3617;48.836;9.172;2023-12-29T06:40:39;2.53;;;1.60;;
7150;SDS011;3617;48.836;9.172;2023-12-29T06:43:05;1.50;;;1.40;;
7150;SDS011;3617;48.836;9.172;2023-12-29T06:45:31;3.13;;;1.40;;
7150;SDS011;3617;48.836;9.172;2023-12-29T06:47:57;1.40;;;1.23;;
7150;SDS011;3617;48.836;9.172;2023-12-29T06:50:23;3.80;;;1.43;;
7150;SDS011;3617;48.836;9.172;2023-12-29T06:52:51;1.60;;;1.20;;
7150;SDS011;3617;48.836;9.172;2023-12-29T06:55:17;1.97;;;1.57;;
7150;SDS011;3617;48.836;9.172;2023-12-29T06:57:43;1.47;;;1.30;;
7150;SDS011;3617;48.836;9.172;2023-12-29T07:00:09;3.10;;;2.00;;
7150;SDS011;3617;48.836;9.172;2023-12-29T07:02:38;1.23;;;1.13;;
7150;SDS011;3617;48.836;9.172;2023-12-29T07:05:07;1.60;;;1.47;;
7150;SDS011;3617;48.836;9.172;2023-12-29T07:07:35;2.00;;;1.30;;
7150;SDS011;3617;48.836;9.172;2023-12-29T07:10:02;1.60;;;1.50;;
7150;SDS011;3617;48.836;9.172;2023-12-29T07:12:29;1.90;;;1.40;;
7150;SDS011;3617;48.836;9.172;2023-12-29T07:14:55;1.90;;;1.50;;
7150;SDS011;3617;48.836;9.172;2023-12-29T07:17:21;2.50;;;1.47;;
7150;SDS011;3617;48.836;9.172;2023-12-29T07:19:47;2.27;;;1.53;;
7150;SDS011;3617;48.836;9.172;2023-12-29T07:22:13;1.50;;;1.30;;
7150;SDS011;3617;48.836;9.172;2023-12-29T07:24:39;2.17;;;1.67;;
7150;SDS011;3617;48.836;9.172;2023-12-29T07:27:05;1.37;;;1.27;;
7150;SDS011;3617;48.836;9.172;2023-12-29T07:29:32;1.80;;;1.47;;
7150;SDS011;3617;48.836;9.172;2023-12-29T07:31:58;1.90;;;1.37;;
7150;SDS011;3617;48.836;9.172;2023-12-29T07:34:25;1.43;;;1.27;;
7150;SDS011;3617;48.836;9.172;2023-12-29T07:36:51;2.60;;;1.20;;
7150;SDS011;3617;48.836;9.172;2023-12-29T07:39:18;0.93;;;0.93;;
7150;SDS011;3617;48.836;9.172;2023-12-29T07:41:44;1.43;;;1.20;;
7150;SDS011;3617;48.836;9.172;2023-12-29T07:44:10;1.60;;;1.50;;
7150;SDS011;3617;48.836;9.172;2023-12-29T07:46:40;2.13;;;1.47;;
7150;SDS011;3617;48.836;9.172;2023-12-29T07:49:06;1.13;;;1.10;;
7150;SDS011;3617;48.836;9.172;2023-12-29T07:51:32;1.53;;;1.43;;
7150;SDS011;3617;48.836;9.172;2023-12-29T07:53:58;1.40;;;1.30;;
7150;SDS011;3617;48.836;9.172;2023-12-29T07:56:24;1.23;;;1.13;;
7150;SDS011;3617;48.836;9.172;2023-12-29T07:58:50;1.30;;;1.20;;
7150;SDS011;3617;48.836;9.172;2023-12-29T08:01:16;2.03;;;1.23;;
7150;SDS011;3617;48.836;9.172;2023-12-29T08:03:42;1.37;;;1.27;;
7150;SDS011;3617;48.836;9.172;2023-12-29T08:06:08;1.60;;;1.20;;
7150;SDS011;3617;48.836;9.172;2023-12-29T08:08:34;1.60;;;1.50;;
7150;SDS011;3617;48.836;9.172;2023-12-29T08:11:00;1.20;;;1.10;;
7150;SDS011;3617;48.836;9.172;2023-12-29T08:13:26;1.67;;;1.00;;
7150;SDS011;3617;48.836;9.172;2023-12-29T08:15:52;1.60;;;1.30;;
7150;SDS011;3617;48.836;9.172;2023-12-29T08:18:18;1.23;;;1.10;;
7150;SDS011;3617;48.836;9.172;2023-12-29T08:20:43;1.43;;;1.10;;
7150;SDS011;3617;48.836;9.172;2023-12-29T08:23:09;1.40;;;1.10;;
7150;SDS011;3617;48.836;9.172;2023-12-29T08:25:36;1.37;;;1.20;;
7150;SDS011;3617;48.836;9.172;2023-12-29T08:28:02;1.83;;;1.30;;
7150;SDS011;3617;48.836;9.172;2023-12-29T08:30:28;1.83;;;1.37;;
7150;SDS011;3617;48.836;9.172;2023-12-29T08:32:54;1.47;;;1.10;;
7150;SDS011;3617;48.836;9.172;2023-12-29T08:35:20;2.90;;;1.40;;
7150;SDS011;3617;48.836;9.172;2023-12-29T08:37:46;1.23;;;1.10;;
7150;SDS011;3617;48.836;9.172;2023-12-29T08:40:12;1.50;;;1.40;;
7150;SDS011;3617;48.836;9.172;2023-12-29T08:42:38;1.47;;;1.20;;
7150;SDS011;3617;48.836;9.172;2023-12-29T08:45:04;1.40;;;1.30;;
7150;SDS011;3617;48.836;9.172;2023-12-29T08:47:32;1.90;;;1.00;;
7150;SDS011;3617;48.836;9.172;2023-12-29T08:49:58;2.03;;;1.47;;
7150;SDS011;3617;48.836;9.172;2023-12-29T08:52:24;1.40;;;1.20;;
7150;SDS011;3617;48.836;9.172;2023-12-29T08:54:50;1.43;;;1.23;;
7150;SDS011;3617;48.836;9.172;2023-12-29T08:57:16;1.47;;;1.20;;
7150;SDS011;3617;48.836;9.172;2023-12-29T08:59:42;1.30;;;1.20;;
7150;SDS011;3617;48.836;9.172;2023-12-29T09:02:08;1.30;;;1.20;;
7150;SDS011;3617;48.836;9.172;2023-12-29T09:04:34;1.30;;;1.20;;
7150;SDS011;3617;48.836;9.172;2023-12-29T09:07:00;1.43;;;1.33;;
7150;SDS011;3617;48.836;9.172;2023-12-29T09:09:26;3.03;;;1.10;;
7150;SDS011;3617;48.836;9.172;2023-12-29T09:11:52;1.53;;;1.30;;
7150;SDS011;3617;48.836;9.172;2023-12-29T09:14:18;1.50;;;1.40;;
7150;SDS011;3617;48.836;9.172;2023-12-29T09:16:44;2.03;;;1.33;;
7150;SDS011;3617;48.836;9.172;2023-12-29T09:19:11;1.30;;;1.20;;
7150;SDS011;3617;48.836;9.172;2023-12-29T09:21:38;1.40;;;1.30;;
7150;SDS011;3617;48.836;9.172;2023-12-29T09:24:04;3.47;;;1.70;;
7150;SDS011;3617;48.836;9.172;2023-12-29T09:26:30;1.70;;;1.23;;
7150;SDS011;3617;48.836;9.172;2023-12-29T09:28:56;1.00;;;1.00;;
7150;SDS011;3617;48.836;9.172;2023-12-29T09:31:22;1.17;;;0.80;;
7150;SDS011;3617;48.836;9.172;2023-12-29T09:33:48;1.27;;;1.10;;
7150;SDS011;3617;48.836;9.172;2023-12-29T09:36:14;1.30;;;1.10;;
7150;SDS011;3617;48.836;9.172;2023-12-29T09:38:40;1.60;;;1.50;;
7150;SDS011;3617;48.836;9.172;2023-12-29T09:41:09;1.00;;;0.90;;
7150;SDS011;3617;48.836;9.172;2023-12-29T09:43:36;1.17;;;0.90;;
7150;SDS011;3617;48.836;9.172;2023-12-29T09:46:02;1.07;;;0.97;;
7150;SDS011;3617;48.836;9.172;2023-12-29T09:48:29;1.87;;;1.03;;
7150;SDS011;3617;48.836;9.172;2023-12-29T09:50:56;1.00;;;0.90;;
7150;SDS011;3617;48.836;9.172;2023-12-29T09:53:22;1.07;;;0.90;;
7150;SDS011;3617;48.836;9.172;2023-12-29T09:55:50;1.07;;;0.97;;
7150;SDS011;3617;48.836;9.172;2023-12-29T09:58:17;2.30;;;1.40;;
7150;SDS011;3617;48.836;9.172;2023-12-29T10:00:46;1.13;;;0.90;;
7150;SDS011;3617;48.836;9.172;2023-12-29T10:03:12;3.73;;;1.60;;
7150;SDS011;3617;48.836;9.172;2023-12-29T10:05:38;1.30;;;1.20;;
7150;SDS011;3617;48.836;9.172;2023-12-29T10:08:04;1.27;;;1.00;;
7150;SDS011;3617;48.836;9.172;2023-12-29T10:10:31;1.50;;;1.00;;
7150;SDS011;3617;48.836;9.172;2023-12-29T10:12:57;0.93;;;0.83;;
7150;SDS011;3617;48.836;9.172;2023-12-29T10:15:33;2.23;;;1.60;;
7150;SDS011;3617;48.836;9.172;2023-12-29T10:18:14;0.77;;;0.77;;
7150;SDS011;3617;48.836;9.172;2023-12-29T10:21:03;0.90;;;0.90;;
7150;SDS011;3617;48.836;9.172;2023-12-29T10:26:00;1.27;;;0.80;;
7150;SDS011;3617;48.836;9.172;2023-12-29T10:28:27;0.80;;;0.80;;
7150;SDS011;3617;48.836;9.172;2023-12-29T10:30:52;0.80;;;0.80;;
7150;SDS011;3617;48.836;9.172;2023-12-29T10:33:19;0.97;;;0.90;;
7150;SDS011;3617;48.836;9.172;2023-12-29T10:36:02;1.03;;;0.80;;
7150;SDS011;3617;48.836;9.172;2023-12-29T10:38:31;1.03;;;0.90;;
7150;SDS011;3617;48.836;9.172;2023-12-29T10:41:10;3.40;;;0.97;;
7150;SDS011;3617;48.836;9.172;2023-12-29T10:43:37;1.10;;;0.85;;
7150;SDS011;3617;48.836;9.172;2023-12-29T10:46:06;0.95;;;0.90;;
7150;SDS011;3617;48.836;9.172;2023-12-29T10:48:36;1.00;;;0.70;;
7150;SDS011;3617;48.836;9.172;2023-12-29T10:51:02;1.00;;;0.90;;
7150;SDS011;3617;48.836;9.172;2023-12-29T10:53:29;0.60;;;0.60;;
7150;SDS011;3617;48.836;9.172;2023-12-29T10:55:55;0.55;;;0.55;;
7150;SDS011;3617;48.836;9.172;2023-12-29T10:58:23;0.80;;;0.73;;
7150;SDS011;3617;48.836;9.172;2023-12-29T11:00:52;1.10;;;0.80;;
7150;SDS011;3617;48.836;9.172;2023-12-29T11:03:18;1.00;;;0.80;;
7150;SDS011;3617;48.836;9.172;2023-12-29T11:05:44;0.60;;;0.60;;
7150;SDS011;3617;48.836;9.172;2023-12-29T11:08:19;1.00;;;0.90;;
7150;SDS011;3617;48.836;9.172;2023-12-29T11:10:47;0.80;;;0.80;;
7150;SDS011;3617;48.836;9.172;2023-12-29T11:13:16;1.10;;;1.00;;
7150;SDS011;3617;48.836;9.172;2023-12-29T11:15:43;0.85;;;0.75;;
7150;SDS011;3617;48.836;9.172;2023-12-29T11:18:13;0.95;;;0.80;;
7150;SDS011;3617;48.836;9.172;2023-12-29T11:20:40;1.60;;;1.20;;
7150;SDS011;3617;48.836;9.172;2023-12-29T11:23:06;1.13;;;0.85;;
7150;SDS011;3617;48.836;9.172;2023-12-29T11:25:34;0.80;;;0.70;;
7150;SDS011;3617;48.836;9.172;2023-12-29T11:28:00;1.00;;;0.90;;
7150;SDS011;3617;48.836;9.172;2023-12-29T11:30:26;1.80;;;0.80;;
7150;SDS011;3617;48.836;9.172;2023-12-29T11:32:55;0.70;;;0.70;;
7150;SDS011;3617;48.836;9.172;2023-12-29T11:35:27;0.55;;;0.55;;
7150;SDS011;3617;48.836;9.172;2023-12-29T11:38:00;0.85;;;0.77;;
7150;SDS011;3617;48.836;9.172;2023-12-29T11:42:54;1.17;;;1.13;;
7150;SDS011;3617;48.836;9.172;2023-12-29T11:45:30;0.70;;;0.70;;
7150;SDS011;3617;48.836;9.172;2023-12-29T11:48:00;1.15;;;0.75;;
7150;SDS011;3617;48.836;9.172;2023-12-29T11:50:34;0.73;;;0.70;;
7150;SDS011;3617;48.836;9.172;2023-12-29T11:53:01;1.08;;;1.00;;
7150;SDS011;3617;48.836;9.172;2023-12-29T11:55:28;0.80;;;0.80;;
7150;SDS011;3617;48.836;9.172;2023-12-29T11:57:55;0.70;;;0.70;;
7150;SDS011;3617;48.836;9.172;2023-12-29T12:00:40;0.87;;;0.70;;
7150;SDS011;3617;48.836;9.172;2023-12-29T12:03:16;0.77;;;0.77;;
7150;SDS011;3617;48.836;9.172;2023-12-29T12:05:48;1.47;;;0.80;;
7150;SDS011;3617;48.836;9.172;2023-12-29T12:08:34;0.93;;;0.80;;
7150;SDS011;3617;48.836;9.172;2023-12-29T12:13:45;2.10;;;0.80;;
7150;SDS011;3617;48.836;9.172;2023-12-29T12:18:56;0.75;;;0.75;;
7150;SDS011;3617;48.836;9.172;2023-12-29T12:21:23;0.70;;;0.70;;
7150;SDS011;3617;48.836;9.172;2023-12-29T12:23:49;0.63;;;0.63;;
7150;SDS011;3617;48.836;9.172;2023-12-29T12:26:15;2.53;;;1.00;;
7150;SDS011;3617;48.836;9.172;2023-12-29T12:28:43;1.00;;;0.70;;
7150;SDS011;3617;48.836;9.172;2023-12-29T12:31:10;0.70;;;0.70;;
7150;SDS011;3617;48.836;9.172;2023-12-29T12:33:39;1.00;;;0.90;;
7150;SDS011;3617;48.836;9.172;2023-12-29T12:36:05;0.77;;;0.70;;
7150;SDS011;3617;48.836;9.172;2023-12-29T12:38:32;0.60;;;0.60;;
7150;SDS011;3617;48.836;9.172;2023-12-29T12:41:08;1.87;;;0.80;;
7150;SDS011;3617;48.836;9.172;2023-12-29T12:43:35;0.80;;;0.80;;
7150;SDS011;3617;48.836;9.172;2023-12-29T12:46:02;1.40;;;1.10;;
7150;SDS011;3617;48.836;9.172;2023-12-29T12:48:33;0.90;;;0.87;;
7150;SDS011;3617;48.836;9.172;2023-12-29T12:51:01;0.80;;;0.80;;
7150;SDS011;3617;48.836;9.172;2023-12-29T12:53:28;0.63;;;0.60;;
7150;SDS011;3617;48.836;9.172;2023-12-29T12:55:54;0.90;;;0.70;;
7150;SDS011;3617;48.836;9.172;2023-12-29T12:58:20;1.37;;;1.17;;
7150;SDS011;3617;48.836;9.172;2023-12-29T13:00:46;2.80;;;1.00;;
7150;SDS011;3617;48.836;9.172;2023-12-29T13:03:13;1.03;;;0.90;;
7150;SDS011;3617;48.836;9.172;2023-12-29T13:05:40;1.10;;;0.90;;
7150;SDS011;3617;48.836;9.172;2023-12-29T13:08:06;0.80;;;0.80;;
7150;SDS011;3617;48.836;9.172;2023-12-29T13:10:32;0.90;;;0.90;;
7150;SDS011;3617;48.836;9.172;2023-12-29T13:12:58;1.37;;;1.00;;
7150;SDS011;3617;48.836;9.172;2023-12-29T13:15:24;1.10;;;0.80;;
7150;SDS011;3617;48.836;9.172;2023-12-29T13:17:51;2.53;;;1.17;;
7150;SDS011;3617;48.836;9.172;2023-12-29T13:20:17;1.43;;;1.13;;
7150;SDS011;3617;48.836;9.172;2023-12-29T13:22:43;1.00;;;0.90;;
7150;SDS011;3617;48.836;9.172;2023-12-29T13:25:09;1.20;;;1.10;;
7150;SDS011;3617;48.836;9.172;2023-12-29T13:27:38;1.10;;;1.00;;
7150;SDS011;3617;48.836;9.172;2023-12-29T13:30:05;1.20;;;1.10;;
7150;SDS011;3617;48.836;9.172;2023-12-29T13:32:31;1.47;;;1.37;;
7150;SDS011;3617;48.836;9.172;2023-12-29T13:37:36;1.33;;;1.00;;
7150;SDS011;3617;48.836;9.172;2023-12-29T13:40:22;1.00;;;0.80;;
7150;SDS011;3617;48.836;9.172;2023-12-29T13:42:50;1.20;;;0.90;;
7150;SDS011;3617;48.836;9.172;2023-12-29T13:45:16;0.80;;;0.80;;
7150;SDS011;3617;48.836;9.172;2023-12-29T13:47:43;0.90;;;0.90;;
7150;SDS011;3617;48.836;9.172;2023-12-29T13:50:10;1.27;;;0.83;;
7150;SDS011;3617;48.836;9.172;2023-12-29T13:52:37;0.80;;;0.80;;
7150;SDS011;3617;48.836;9.172;2023-12-29T13:55:03;1.10;;;1.00;;
7150;SDS011;3617;48.836;9.172;2023-12-29T13:57:33;1.00;;;0.90;;
7150;SDS011;3617;48.836;9.172;2023-12-29T14:02:41;0.80;;;0.80;;
7150;SDS011;3617;48.836;9.172;2023-12-29T14:07:37;0.83;;;0.80;;
7150;SDS011;3617;48.836;9.172;2023-12-29T14:10:09;2.90;;;0.97;;
7150;SDS011;3617;48.836;9.172;2023-12-29T14:12:35;1.20;;;1.10;;
7150;SDS011;3617;48.836;9.172;2023-12-29T14:15:02;1.03;;;0.93;;
7150;SDS011;3617;48.836;9.172;2023-12-29T14:17:29;1.00;;;1.00;;
7150;SDS011;3617;48.836;9.172;2023-12-29T14:19:55;1.07;;;0.90;;
7150;SDS011;3617;48.836;9.172;2023-12-29T14:22:25;0.80;;;0.80;;
7150;SDS011;3617;48.836;9.172;2023-12-29T14:25:12;0.97;;;0.80;;
7150;SDS011;3617;48.836;9.172;2023-12-29T14:27:38;0.90;;;0.90;;
7150;SDS011;3617;48.836;9.172;2023-12-29T14:30:16;0.90;;;0.90;;
7150;SDS011;3617;48.836;9.172;2023-12-29T14:32:42;1.07;;;0.97;;
7150;SDS011;3617;48.836;9.172;2023-12-29T14:35:08;1.43;;;0.90;;
7150;SDS011;3617;48.836;9.172;2023-12-29T14:37:35;0.87;;;0.87;;
7150;SDS011;3617;48.836;9.172;2023-12-29T14:40:01;0.93;;;0.90;;
7150;SDS011;3617;48.836;9.172;2023-12-29T14:42:29;1.00;;;0.90;;
7150;SDS011;3617;48.836;9.172;2023-12-29T14:44:57;1.00;;;0.90;;
7150;SDS011;3617;48.836;9.172;2023-12-29T14:47:23;0.80;;;0.80;;
7150;SDS011;3617;48.836;9.172;2023-12-29T14:49:49;1.20;;;1.00;;
7150;SDS011;3617;48.836;9.172;2023-12-29T14:52:15;1.40;;;1.00;;
7150;SDS011;3617;48.836;9.172;2023-12-29T14:54:42;1.10;;;1.00;;
7150;SDS011;3617;48.836;9.172;2023-12-29T14:57:08;1.03;;;1.00;;
7150;SDS011;3617;48.836;9.172;2023-12-29T14:59:34;1.37;;;1.00;;
7150;SDS011;3617;48.836;9.172;2023-12-29T15:02:01;0.97;;;0.80;;
7150;SDS011;3617;48.836;9.172;2023-12-29T15:04:27;1.07;;;0.93;;
7150;SDS011;3617;48.836;9.172;2023-12-29T15:06:56;0.90;;;0.90;;
7150;SDS011;3617;48.836;9.172;2023-12-29T15:09:22;2.00;;;1.00;;
7150;SDS011;3617;48.836;9.172;2023-12-29T15:11:48;1.13;;;1.00;;
7150;SDS011;3617;48.836;9.172;2023-12-29T15:14:17;1.30;;;1.10;;
7150;SDS011;3617;48.836;9.172;2023-12-29T15:16:44;0.93;;;0.83;;
7150;SDS011;3617;48.836;9.172;2023-12-29T15:19:10;0.93;;;0.93;;
7150;SDS011;3617;48.836;9.172;2023-12-29T15:21:40;1.27;;;1.00;;
7150;SDS011;3617;48.836;9.172;2023-12-29T15:24:06;1.27;;;0.90;;
7150;SDS011;3617;48.836;9.172;2023-12-29T15:26:35;2.33;;;0.97;;
7150;SDS011;3617;48.836;9.172;2023-12-29T15:29:01;1.20;;;0.80;;
7150;SDS011;3617;48.836;9.172;2023-12-29T15:31:27;1.30;;;1.00;;
7150;SDS011;3617;48.836;9.172;2023-12-29T15:33:54;1.10;;;0.90;;